createdAt,value
2018-09-30T00:00:34.531Z,5.74
2018-09-30T00:01:34.542Z,5.75
2018-09-30T00:02:34.513Z,5.69
2018-09-30T00:03:34.514Z,5.69
2018-09-30T00:04:34.492Z,5.59
2018-09-30T00:05:34.483Z,5.60
2018-09-30T00:06:34.470Z,5.60
2018-09-30T00:07:34.486Z,5.62
2018-09-30T00:08:34.463Z,5.58
2018-09-30T00:09:34.436Z,5.59
2018-09-30T00:10:34.426Z,5.58
2018-09-30T00:11:34.416Z,5.59
2018-09-30T00:12:34.405Z,5.52
2018-09-30T00:13:34.732Z,5.33
2018-09-30T00:14:34.382Z,5.44
2018-09-30T00:15:34.375Z,5.35
2018-09-30T00:16:34.367Z,5.40
2018-09-30T00:17:34.351Z,5.41
2018-09-30T00:18:34.356Z,5.33
2018-09-30T00:19:34.383Z,5.41
2018-09-30T00:20:34.319Z,5.26
2018-09-30T00:21:34.309Z,5.38
2018-09-30T00:22:34.300Z,5.38
2018-09-30T00:23:34.302Z,5.44
2018-09-30T00:24:34.277Z,5.44
2018-09-30T00:25:34.291Z,5.37
2018-09-30T00:26:34.255Z,5.38
2018-09-30T00:27:34.244Z,5.33
2018-09-30T00:28:34.248Z,5.35
2018-09-30T00:29:34.225Z,5.35
2018-09-30T00:30:34.214Z,5.32
2018-09-30T00:31:34.212Z,5.32
2018-09-30T00:32:34.194Z,5.33
2018-09-30T00:33:34.194Z,5.38
2018-09-30T00:34:34.168Z,5.30
2018-09-30T00:35:34.161Z,5.40
2018-09-30T00:36:34.149Z,5.37
2018-09-30T00:37:34.168Z,5.19
2018-09-30T00:38:34.141Z,5.22
2018-09-30T00:39:34.120Z,5.11
2018-09-30T00:40:34.108Z,5.09
2018-09-30T00:41:34.095Z,5.22
2018-09-30T00:42:34.083Z,5.24
2018-09-30T00:43:34.117Z,5.33
2018-09-30T00:44:34.063Z,5.26
2018-09-30T00:45:34.053Z,5.12
2018-09-30T00:46:34.042Z,5.17
2018-09-30T00:47:34.033Z,5.19
2018-09-30T00:48:34.043Z,5.24
2018-09-30T00:49:34.024Z,5.19
2018-09-30T00:50:33.998Z,5.27
2018-09-30T00:51:33.988Z,5.29
2018-09-30T00:52:33.979Z,5.19
2018-09-30T00:53:33.968Z,5.29
2018-09-30T00:54:34.012Z,5.14
2018-09-30T00:55:33.949Z,5.19
2018-09-30T00:56:33.934Z,5.17
2018-09-30T00:57:33.923Z,5.26
2018-09-30T00:58:33.916Z,5.14
2018-09-30T00:59:33.920Z,5.15
2018-09-30T01:00:33.911Z,5.08
2018-09-30T01:01:33.883Z,4.99
2018-09-30T01:02:33.871Z,4.97
2018-09-30T01:03:33.861Z,5.01
2018-09-30T01:04:33.865Z,4.87
2018-09-30T01:05:33.840Z,4.77
2018-09-30T01:06:33.854Z,4.74
2018-09-30T01:07:33.818Z,4.91
2018-09-30T01:08:33.812Z,5.01
2018-09-30T01:09:33.813Z,4.96
2018-09-30T01:10:33.786Z,4.90
2018-09-30T01:11:33.776Z,4.84
2018-09-30T01:12:33.780Z,4.80
2018-09-30T01:13:33.755Z,4.88
2018-09-30T01:14:33.773Z,4.86
2018-09-30T01:15:33.737Z,4.93
2018-09-30T01:16:33.723Z,4.93
2018-09-30T01:17:33.714Z,4.97
2018-09-30T01:18:33.727Z,4.94
2018-09-30T01:19:33.705Z,4.96
2018-09-30T01:20:33.684Z,5.02
2018-09-30T01:21:33.676Z,5.08
2018-09-30T01:22:33.659Z,5.22
2018-09-30T01:23:33.651Z,5.17
2018-09-30T01:24:33.685Z,5.27
2018-09-30T01:25:33.628Z,5.27
2018-09-30T01:26:33.621Z,5.35
2018-09-30T01:27:33.607Z,5.32
2018-09-30T01:28:33.596Z,5.20
2018-09-30T01:29:33.586Z,5.14
2018-09-30T01:30:33.614Z,5.14
2018-09-30T01:31:33.564Z,5.12
2018-09-30T01:32:33.555Z,5.17
2018-09-30T01:33:33.545Z,5.27
2018-09-30T01:34:33.534Z,5.30
2018-09-30T01:35:33.535Z,5.38
2018-09-30T01:36:33.532Z,5.33
2018-09-30T01:37:33.504Z,5.32
2018-09-30T01:38:33.492Z,5.24
2018-09-30T01:39:33.479Z,5.20
2018-09-30T01:40:33.490Z,5.08
2018-09-30T01:41:33.461Z,5.17
2018-09-30T01:42:33.471Z,5.11
2018-09-30T01:43:33.437Z,5.06
2018-09-30T01:44:33.429Z,4.93
2018-09-30T01:45:33.431Z,4.93
2018-09-30T01:46:33.405Z,4.84
2018-09-30T01:47:33.396Z,4.77
2018-09-30T01:48:33.398Z,4.80
2018-09-30T01:49:33.376Z,4.80
2018-09-30T01:50:33.380Z,4.79
2018-09-30T01:51:33.352Z,4.83
2018-09-30T01:52:33.343Z,4.88
2018-09-30T01:53:33.330Z,4.86
2018-09-30T01:54:33.347Z,4.84
2018-09-30T01:55:33.325Z,4.80
2018-09-30T01:56:33.301Z,4.74
2018-09-30T01:57:33.288Z,4.75
2018-09-30T01:58:33.281Z,4.84
2018-09-30T01:59:33.271Z,4.80
2018-09-30T02:00:33.299Z,4.61
2018-09-30T02:01:33.251Z,4.68
2018-09-30T02:02:33.237Z,4.59
2018-09-30T02:03:33.226Z,4.64
2018-09-30T02:04:33.220Z,4.62
2018-09-30T02:05:33.223Z,4.64
2018-09-30T02:06:33.223Z,4.72
2018-09-30T02:07:33.185Z,4.65
2018-09-30T02:08:33.174Z,4.64
2018-09-30T02:09:33.164Z,4.62
2018-09-30T02:10:33.165Z,4.64
2018-09-30T02:11:33.142Z,4.64
2018-09-30T02:12:33.145Z,4.61
2018-09-30T02:13:33.120Z,4.71
2018-09-30T02:14:33.108Z,4.68
2018-09-30T02:15:33.111Z,4.64
2018-09-30T02:16:33.088Z,4.67
2018-09-30T02:17:33.078Z,4.54
2018-09-30T02:18:33.093Z,4.65
2018-09-30T02:19:33.056Z,4.72
2018-09-30T02:20:33.060Z,4.84
2018-09-30T02:21:33.039Z,4.75
2018-09-30T02:22:33.024Z,4.79
2018-09-30T02:23:33.014Z,4.77
2018-09-30T02:24:33.026Z,4.75
2018-09-30T02:25:33.006Z,4.62
2018-09-30T02:26:32.981Z,4.71
2018-09-30T02:27:32.970Z,4.74
2018-09-30T02:28:32.969Z,4.65
2018-09-30T02:29:32.953Z,4.62
2018-09-30T02:30:32.963Z,4.59
2018-09-30T02:31:32.946Z,4.71
2018-09-30T02:32:32.916Z,4.62
2018-09-30T02:33:32.906Z,4.59
2018-09-30T02:34:32.897Z,4.71
2018-09-30T02:35:32.885Z,4.68
2018-09-30T02:36:32.906Z,4.65
2018-09-30T02:37:32.879Z,4.79
2018-09-30T02:38:32.853Z,4.79
2018-09-30T02:39:32.843Z,4.80
2018-09-30T02:40:32.831Z,4.64
2018-09-30T02:41:32.836Z,4.57
2018-09-30T02:42:32.810Z,4.51
2018-09-30T02:43:32.814Z,4.49
2018-09-30T02:44:32.789Z,4.49
2018-09-30T02:45:32.780Z,4.53
2018-09-30T02:46:32.783Z,4.47
2018-09-30T02:47:32.764Z,4.49
2018-09-30T02:48:32.745Z,4.36
2018-09-30T02:49:32.759Z,4.35
2018-09-30T02:50:32.725Z,4.34
2018-09-30T02:51:32.731Z,4.29
2018-09-30T02:52:32.704Z,4.24
2018-09-30T02:53:32.695Z,4.34
2018-09-30T02:54:32.682Z,4.28
2018-09-30T02:55:32.693Z,4.20
2018-09-30T02:56:32.675Z,4.38
2018-09-30T02:57:32.649Z,4.62
2018-09-30T02:58:32.641Z,4.46
2018-09-30T02:59:32.631Z,4.51
2018-09-30T03:00:32.621Z,4.50
2018-09-30T03:01:32.649Z,4.35
2018-09-30T03:02:32.599Z,4.43
2018-09-30T03:03:32.589Z,4.46
2018-09-30T03:04:32.576Z,4.50
2018-09-30T03:05:32.563Z,4.65
2018-09-30T03:06:32.584Z,4.79
2018-09-30T03:07:32.567Z,4.67
2018-09-30T03:08:32.533Z,4.71
2018-09-30T03:09:32.522Z,4.77
2018-09-30T03:10:32.509Z,4.77
2018-09-30T03:11:32.500Z,4.90
2018-09-30T03:12:32.504Z,4.91
2018-09-30T03:13:32.501Z,4.94
2018-09-30T03:14:32.467Z,4.91
2018-09-30T03:15:32.459Z,4.87
2018-09-30T03:16:32.448Z,4.87
2018-09-30T03:17:32.452Z,4.84
2018-09-30T03:18:32.426Z,4.74
2018-09-30T03:19:32.434Z,4.75
2018-09-30T03:20:32.404Z,4.86
2018-09-30T03:21:32.397Z,4.77
2018-09-30T03:22:32.399Z,4.75
2018-09-30T03:23:32.373Z,4.72
2018-09-30T03:24:32.363Z,4.65
2018-09-30T03:25:32.374Z,4.67
2018-09-30T03:26:32.340Z,4.62
2018-09-30T03:27:32.341Z,4.59
2018-09-30T03:28:32.320Z,4.57
2018-09-30T03:29:32.306Z,4.61
2018-09-30T03:30:32.298Z,4.61
2018-09-30T03:31:32.314Z,4.57
2018-09-30T03:32:32.303Z,4.49
2018-09-30T03:33:32.267Z,4.43
2018-09-30T03:34:32.255Z,4.36
2018-09-30T03:35:32.244Z,4.25
2018-09-30T03:36:32.234Z,4.28
2018-09-30T03:37:32.260Z,4.39
2018-09-30T03:38:32.212Z,4.32
2018-09-30T03:39:32.216Z,4.29
2018-09-30T03:40:32.195Z,4.34
2018-09-30T03:41:32.184Z,4.35
2018-09-30T03:42:32.185Z,4.35
2018-09-30T03:43:32.181Z,4.38
2018-09-30T03:44:32.149Z,4.38
2018-09-30T03:45:32.139Z,4.29
2018-09-30T03:46:32.129Z,4.35
2018-09-30T03:47:32.149Z,4.32
2018-09-30T03:48:32.112Z,4.31
2018-09-30T03:49:32.118Z,4.31
2018-09-30T03:50:32.087Z,4.34
2018-09-30T03:51:32.078Z,4.34
2018-09-30T03:52:32.069Z,4.53
2018-09-30T03:53:32.073Z,4.57
2018-09-30T03:54:32.044Z,4.57
2018-09-30T03:55:32.066Z,4.46
2018-09-30T03:56:32.026Z,4.46
2018-09-30T03:57:32.010Z,4.49
2018-09-30T03:58:32.014Z,4.46
2018-09-30T03:59:32.041Z,4.35
2018-09-30T04:00:31.982Z,4.31
2018-09-30T04:01:31.993Z,4.43
2018-09-30T04:02:31.957Z,4.65
2018-09-30T04:03:31.963Z,4.59
2018-09-30T04:04:31.936Z,4.56
2018-09-30T04:05:31.925Z,4.67
2018-09-30T04:06:31.916Z,4.61
2018-09-30T04:07:31.931Z,4.64
2018-09-30T04:08:31.909Z,4.65
2018-09-30T04:09:31.894Z,4.68
2018-09-30T04:10:31.874Z,4.64
2018-09-30T04:11:31.868Z,4.64
2018-09-30T04:12:31.854Z,4.57
2018-09-30T04:13:31.884Z,4.62
2018-09-30T04:14:31.833Z,4.57
2018-09-30T04:15:31.829Z,4.46
2018-09-30T04:16:31.820Z,4.44
2018-09-30T04:17:31.897Z,4.35
2018-09-30T04:18:31.809Z,4.46
2018-09-30T04:19:31.805Z,4.50
2018-09-30T04:20:31.769Z,4.50
2018-09-30T04:21:31.759Z,4.43
2018-09-30T04:22:31.747Z,4.50
2018-09-30T04:23:31.751Z,4.46
2018-09-30T04:24:31.748Z,4.42
2018-09-30T04:25:31.802Z,4.44
2018-09-30T04:26:31.705Z,4.50
2018-09-30T04:27:31.694Z,4.36
2018-09-30T04:28:31.701Z,4.35
2018-09-30T04:29:31.678Z,4.34
2018-09-30T04:30:31.664Z,4.29
2018-09-30T04:31:31.674Z,4.28
2018-09-30T04:32:31.642Z,4.28
2018-09-30T04:33:31.646Z,4.35
2018-09-30T04:34:31.623Z,4.39
2018-09-30T04:35:31.611Z,4.24
2018-09-30T04:36:31.639Z,4.28
2018-09-30T04:37:31.614Z,4.24
2018-09-30T04:38:31.592Z,4.28
2018-09-30T04:39:31.570Z,4.26
2018-09-30T04:40:31.562Z,4.35
2018-09-30T04:41:31.548Z,4.35
2018-09-30T04:42:31.539Z,4.35
2018-09-30T04:43:31.582Z,4.34
2018-09-30T04:44:31.515Z,4.31
2018-09-30T04:45:31.510Z,4.24
2018-09-30T04:46:31.497Z,4.13
2018-09-30T04:47:31.486Z,4.16
2018-09-30T04:48:31.477Z,4.04
2018-09-30T04:49:31.505Z,4.08
2018-09-30T04:50:31.457Z,4.06
2018-09-30T04:51:31.444Z,4.06
2018-09-30T04:52:31.433Z,4.06
2018-09-30T04:53:31.422Z,4.08
2018-09-30T04:54:31.425Z,4.08
2018-09-30T04:55:31.432Z,4.18
2018-09-30T04:56:31.392Z,4.16
2018-09-30T04:57:31.382Z,4.29
2018-09-30T04:58:31.369Z,4.43
2018-09-30T04:59:31.375Z,4.50
2018-09-30T05:00:31.349Z,4.47
2018-09-30T05:01:31.363Z,4.47
2018-09-30T05:02:31.327Z,4.43
2018-09-30T05:03:31.320Z,4.53
2018-09-30T05:04:31.332Z,4.36
2018-09-30T05:05:31.300Z,4.34
2018-09-30T05:06:31.289Z,4.24
2018-09-30T05:07:31.294Z,4.31
2018-09-30T05:08:31.266Z,4.35
2018-09-30T05:09:31.270Z,4.26
2018-09-30T05:10:31.245Z,4.25
2018-09-30T05:11:31.234Z,4.29
2018-09-30T05:12:31.223Z,4.43
2018-09-30T05:13:31.237Z,4.49
2018-09-30T05:14:31.218Z,4.59
2018-09-30T05:15:31.196Z,4.65
2018-09-30T05:16:31.203Z,4.59
2018-09-30T05:17:31.171Z,4.64
2018-09-30T05:18:31.160Z,4.62
2018-09-30T05:19:31.188Z,4.64
2018-09-30T05:20:31.141Z,4.67
2018-09-30T05:21:31.131Z,4.65
2018-09-30T05:22:31.123Z,4.62
2018-09-30T05:23:31.116Z,4.56
2018-09-30T05:24:31.144Z,4.65
2018-09-30T05:25:31.134Z,4.62
2018-09-30T05:26:31.077Z,4.69
2018-09-30T05:27:31.071Z,4.75
2018-09-30T05:28:31.057Z,4.75
2018-09-30T05:29:31.062Z,4.74
2018-09-30T05:30:31.055Z,4.69
2018-09-30T05:31:31.030Z,4.65
2018-09-30T05:32:31.019Z,4.65
2018-09-30T05:33:31.004Z,4.64
2018-09-30T05:34:31.013Z,4.47
2018-09-30T05:35:30.984Z,4.49
2018-09-30T05:36:31.000Z,4.46
2018-09-30T05:37:30.966Z,4.47
2018-09-30T05:38:30.950Z,4.43
2018-09-30T05:39:30.956Z,4.32
2018-09-30T05:40:30.933Z,4.59
2018-09-30T05:41:30.920Z,4.56
2018-09-30T05:42:30.932Z,4.49
2018-09-30T05:43:30.901Z,4.50
2018-09-30T05:44:30.915Z,4.57
2018-09-30T05:45:30.877Z,4.67
2018-09-30T05:46:30.868Z,4.72
2018-09-30T05:47:30.857Z,4.86
2018-09-30T05:48:30.864Z,4.94
2018-09-30T05:49:30.837Z,4.96
2018-09-30T05:50:30.840Z,5.02
2018-09-30T05:51:30.819Z,5.12
2018-09-30T05:52:30.805Z,5.04
2018-09-30T05:53:30.797Z,5.09
2018-09-30T05:54:30.821Z,5.04
2018-09-30T05:55:30.787Z,5.01
2018-09-30T05:56:30.766Z,5.02
2018-09-30T05:57:30.788Z,5.11
2018-09-30T05:58:30.740Z,5.35
2018-09-30T05:59:30.729Z,5.30
2018-09-30T06:00:30.760Z,5.27
2018-09-30T06:01:30.712Z,5.33
2018-09-30T06:02:30.699Z,5.51
2018-09-30T06:03:30.692Z,5.69
2018-09-30T06:04:30.676Z,5.81
2018-09-30T06:05:30.679Z,5.98
2018-09-30T06:06:30.674Z,6.21
2018-09-30T06:07:30.648Z,6.46
2018-09-30T06:08:30.638Z,6.53
2018-09-30T06:09:30.741Z,6.63
2018-09-30T06:10:30.628Z,6.72
2018-09-30T06:11:30.602Z,6.79
2018-09-30T06:12:30.614Z,6.81
2018-09-30T06:13:30.580Z,6.90
2018-09-30T06:14:30.570Z,7.01
2018-09-30T06:15:30.573Z,7.32
2018-09-30T06:16:30.548Z,7.69
2018-09-30T06:17:30.538Z,8.18
2018-09-30T06:18:30.547Z,8.52
2018-09-30T06:19:30.518Z,8.79
2018-09-30T06:20:30.520Z,8.86
2018-09-30T06:21:30.498Z,8.78
2018-09-30T06:22:30.487Z,8.79
2018-09-30T06:23:30.478Z,8.82
2018-09-30T06:24:30.487Z,8.79
2018-09-30T06:25:30.470Z,8.85
2018-09-30T06:26:30.445Z,8.75
2018-09-30T06:27:30.433Z,8.75
2018-09-30T06:28:30.424Z,8.97
2018-09-30T06:29:30.409Z,9.32
2018-09-30T06:30:30.435Z,9.98
2018-09-30T06:31:30.453Z,10.32
2018-09-30T06:32:30.379Z,10.69
2018-09-30T06:33:30.367Z,10.91
2018-09-30T06:34:30.359Z,11.24
2018-09-30T06:35:30.359Z,11.20
2018-09-30T06:36:30.368Z,11.45
2018-09-30T06:37:30.328Z,11.51
2018-09-30T06:38:30.313Z,11.79
2018-09-30T06:39:30.304Z,12.04
2018-09-30T06:40:30.332Z,12.33
2018-09-30T06:41:30.282Z,12.62
2018-09-30T06:42:30.284Z,12.67
2018-09-30T06:43:30.277Z,12.99
2018-09-30T06:44:30.252Z,13.24
2018-09-30T06:45:30.327Z,13.65
2018-09-30T06:46:30.249Z,13.72
2018-09-30T06:47:30.217Z,13.62
2018-09-30T06:48:30.208Z,13.36
2018-09-30T06:49:30.212Z,13.38
2018-09-30T06:50:30.227Z,13.24
2018-09-30T06:51:30.188Z,13.65
2018-09-30T06:52:30.164Z,13.84
2018-09-30T06:53:30.152Z,13.80
2018-09-30T06:54:30.142Z,14.16
2018-09-30T06:55:30.145Z,14.35
2018-09-30T06:56:30.140Z,14.67
2018-09-30T06:57:30.125Z,14.80
2018-09-30T06:58:30.116Z,14.54
2018-09-30T06:59:30.090Z,14.23
2018-09-30T07:00:30.081Z,14.08
2018-09-30T07:01:30.080Z,14.04
2018-09-30T07:02:30.057Z,13.98
2018-09-30T07:03:30.047Z,13.66
2018-09-30T07:04:30.052Z,13.44
2018-09-30T07:05:30.025Z,13.98
2018-09-30T07:06:30.035Z,14.29
2018-09-30T07:07:30.002Z,14.49
2018-09-30T07:08:29.992Z,14.78
2018-09-30T07:09:29.982Z,14.67
2018-09-30T07:10:29.985Z,14.97
2018-09-30T07:11:29.972Z,15.00
2018-09-30T07:12:29.949Z,14.78
2018-09-30T07:13:29.939Z,14.38
2018-09-30T07:14:29.928Z,14.80
2018-09-30T07:15:29.916Z,15.11
2018-09-30T07:16:29.931Z,15.38
2018-09-30T07:17:29.906Z,15.28
2018-09-30T07:18:29.886Z,15.16
2018-09-30T07:19:29.873Z,15.34
2018-09-30T07:20:29.863Z,15.11
2018-09-30T07:21:29.870Z,15.05
2018-09-30T07:22:29.847Z,14.74
2018-09-30T07:23:29.852Z,14.54
2018-09-30T07:24:29.821Z,14.80
2018-09-30T07:25:29.811Z,15.25
2018-09-30T07:26:29.813Z,15.66
2018-09-30T07:27:29.788Z,15.66
2018-09-30T07:28:29.777Z,15.91
2018-09-30T07:29:29.786Z,15.91
2018-09-30T07:30:29.754Z,15.92
2018-09-30T07:31:29.758Z,16.01
2018-09-30T07:32:29.735Z,15.77
2018-09-30T07:33:29.723Z,15.88
2018-09-30T07:34:29.712Z,16.06
2018-09-30T07:35:29.714Z,16.08
2018-09-30T07:36:29.715Z,16.04
2018-09-30T07:37:29.693Z,16.11
2018-09-30T07:38:29.726Z,16.30
2018-09-30T07:39:29.696Z,16.26
2018-09-30T07:40:29.664Z,16.16
2018-09-30T07:41:29.662Z,16.50
2018-09-30T07:42:29.647Z,17.14
2018-09-30T07:43:29.617Z,17.05
2018-09-30T07:44:29.630Z,16.75
2018-09-30T07:45:29.597Z,16.99
2018-09-30T07:46:29.600Z,17.42
2018-09-30T07:47:29.591Z,17.57
2018-09-30T07:48:29.578Z,17.84
2018-09-30T07:49:29.575Z,17.96
2018-09-30T07:50:29.541Z,17.06
2018-09-30T07:51:29.555Z,16.62
2018-09-30T07:52:29.565Z,16.45
2018-09-30T07:53:29.508Z,17.25
2018-09-30T07:54:29.511Z,17.02
2018-09-30T07:55:29.486Z,16.81
2018-09-30T07:56:29.478Z,16.70
2018-09-30T07:57:29.479Z,16.99
2018-09-30T07:58:29.454Z,16.88
2018-09-30T07:59:29.443Z,16.48
2018-09-30T08:00:29.443Z,17.15
2018-09-30T08:01:29.427Z,17.46
2018-09-30T08:02:29.426Z,17.95
2018-09-30T08:03:29.400Z,18.13
2018-09-30T08:04:29.388Z,18.17
2018-09-30T08:05:29.377Z,18.36
2018-09-30T08:06:29.505Z,18.60
2018-09-30T08:07:29.420Z,18.76
2018-09-30T08:08:29.364Z,18.72
2018-09-30T08:09:29.342Z,18.97
2018-09-30T08:10:29.336Z,19.31
2018-09-30T08:11:29.313Z,19.50
2018-09-30T08:12:29.322Z,19.76
2018-09-30T08:13:29.346Z,20.00
2018-09-30T08:14:29.296Z,19.97
2018-09-30T08:15:29.269Z,19.68
2018-09-30T08:16:29.286Z,19.25
2018-09-30T08:17:29.279Z,18.89
2018-09-30T08:18:29.238Z,19.25
2018-09-30T08:19:29.226Z,19.61
2018-09-30T08:20:29.231Z,19.72
2018-09-30T08:21:29.219Z,20.05
2018-09-30T08:22:29.208Z,20.17
2018-09-30T08:23:29.184Z,20.25
2018-09-30T08:24:29.234Z,20.40
2018-09-30T08:25:29.162Z,20.64
2018-09-30T08:26:29.167Z,20.63
2018-09-30T08:27:29.153Z,20.96
2018-09-30T08:28:29.129Z,21.00
2018-09-30T08:29:29.119Z,21.24
2018-09-30T08:30:29.106Z,21.09
2018-09-30T08:31:29.097Z,20.96
2018-09-30T08:32:29.111Z,20.97
2018-09-30T08:33:29.086Z,21.26
2018-09-30T08:34:29.075Z,21.61
2018-09-30T08:35:29.054Z,21.91
2018-09-30T08:36:29.045Z,21.27
2018-09-30T08:37:29.050Z,20.58
2018-09-30T08:38:29.022Z,20.69
2018-09-30T08:39:29.018Z,20.22
2018-09-30T08:40:29.010Z,19.72
2018-09-30T08:41:28.998Z,19.50
2018-09-30T08:42:29.005Z,19.50
2018-09-30T08:43:28.977Z,19.62
2018-09-30T08:44:28.962Z,19.43
2018-09-30T08:45:28.970Z,19.64
2018-09-30T08:46:28.963Z,19.68
2018-09-30T08:47:29.135Z,19.60
2018-09-30T08:48:28.924Z,19.21
2018-09-30T08:49:28.914Z,19.34
2018-09-30T08:50:28.901Z,20.15
2018-09-30T08:51:28.892Z,20.31
2018-09-30T08:52:28.895Z,20.71
2018-09-30T08:53:28.861Z,20.98
2018-09-30T08:54:28.863Z,21.05
2018-09-30T08:55:28.852Z,21.05
2018-09-30T08:56:28.856Z,20.58
2018-09-30T08:57:28.833Z,20.38
2018-09-30T08:58:28.819Z,20.35
2018-09-30T08:59:28.805Z,20.33
2018-09-30T09:00:28.791Z,20.68
2018-09-30T09:01:28.784Z,20.96
2018-09-30T09:02:28.799Z,21.08
2018-09-30T09:03:28.767Z,20.97
2018-09-30T09:04:28.779Z,20.34
2018-09-30T09:05:28.767Z,20.33
2018-09-30T09:06:28.739Z,20.50
2018-09-30T09:07:28.774Z,20.53
2018-09-30T09:08:28.700Z,20.08
2018-09-30T09:09:28.708Z,19.79
2018-09-30T09:10:28.684Z,20.12
2018-09-30T09:11:28.692Z,20.23
2018-09-30T09:12:28.674Z,20.27
2018-09-30T09:13:28.671Z,20.44
2018-09-30T09:14:28.640Z,20.97
2018-09-30T09:15:28.668Z,21.36
2018-09-30T09:16:28.616Z,21.64
2018-09-30T09:17:28.627Z,21.77
2018-09-30T09:18:28.617Z,21.96
2018-09-30T09:19:28.596Z,21.46
2018-09-30T09:20:28.595Z,20.98
2018-09-30T09:21:28.560Z,20.79
2018-09-30T09:22:28.620Z,20.79
2018-09-30T09:23:28.558Z,21.00
2018-09-30T09:24:28.539Z,20.64
2018-09-30T09:25:28.532Z,20.57
2018-09-30T09:26:28.519Z,21.06
2018-09-30T09:27:28.521Z,21.52
2018-09-30T09:28:28.500Z,21.90
2018-09-30T09:29:28.493Z,22.33
2018-09-30T09:30:28.482Z,22.70
2018-09-30T09:31:28.535Z,22.81
2018-09-30T09:32:28.451Z,23.15
2018-09-30T09:33:28.449Z,22.29
2018-09-30T09:34:28.435Z,22.45
2018-09-30T09:35:28.433Z,22.81
2018-09-30T09:36:28.410Z,23.09
2018-09-30T09:37:28.407Z,23.11
2018-09-30T09:38:28.415Z,23.16
2018-09-30T09:39:28.382Z,23.16
2018-09-30T09:40:28.369Z,23.26
2018-09-30T09:41:28.355Z,23.11
2018-09-30T09:42:28.341Z,23.35
2018-09-30T09:43:28.344Z,23.54
2018-09-30T09:44:28.342Z,23.81
2018-09-30T09:45:28.328Z,23.94
2018-09-30T09:46:28.301Z,24.15
2018-09-30T09:47:28.317Z,23.35
2018-09-30T09:48:28.292Z,22.97
2018-09-30T09:49:28.266Z,22.97
2018-09-30T09:50:28.254Z,23.11
2018-09-30T09:51:28.246Z,23.22
2018-09-30T09:52:28.296Z,23.45
2018-09-30T09:53:28.247Z,23.75
2018-09-30T09:54:28.218Z,22.94
2018-09-30T09:55:28.207Z,22.51
2018-09-30T09:56:28.187Z,22.54
2018-09-30T09:57:28.190Z,22.44
2018-09-30T09:58:28.184Z,22.19
2018-09-30T09:59:28.241Z,21.75
2018-09-30T10:00:28.153Z,21.26
2018-09-30T10:01:28.139Z,21.01
2018-09-30T10:02:28.130Z,20.94
2018-09-30T10:03:28.133Z,20.94
2018-09-30T10:04:28.107Z,21.26
2018-09-30T10:05:28.117Z,21.79
2018-09-30T10:06:28.092Z,22.29
2018-09-30T10:07:28.086Z,22.81
2018-09-30T10:08:28.078Z,23.26
2018-09-30T10:09:28.060Z,23.38
2018-09-30T10:10:28.045Z,23.67
2018-09-30T10:11:28.043Z,23.60
2018-09-30T10:12:28.021Z,23.59
2018-09-30T10:13:28.026Z,23.26
2018-09-30T10:14:28.005Z,23.06
2018-09-30T10:15:27.998Z,23.16
2018-09-30T10:16:27.985Z,23.63
2018-09-30T10:17:27.967Z,23.68
2018-09-30T10:18:27.971Z,23.79
2018-09-30T10:19:27.967Z,23.97
2018-09-30T10:20:27.934Z,23.89
2018-09-30T10:21:27.932Z,23.97
2018-09-30T10:22:27.934Z,23.09
2018-09-30T10:23:27.930Z,22.15
2018-09-30T10:24:27.893Z,22.30
2018-09-30T10:25:27.894Z,22.42
2018-09-30T10:26:27.873Z,21.86
2018-09-30T10:27:27.867Z,21.43
2018-09-30T10:28:27.868Z,21.77
2018-09-30T10:29:27.854Z,22.57
2018-09-30T10:30:27.835Z,23.11
2018-09-30T10:31:27.822Z,23.41
2018-09-30T10:32:27.812Z,23.86
2018-09-30T10:33:27.827Z,24.30
2018-09-30T10:34:27.798Z,24.42
2018-09-30T10:35:27.783Z,24.46
2018-09-30T10:36:27.777Z,23.52
2018-09-30T10:37:27.765Z,23.03
2018-09-30T10:38:27.875Z,22.57
2018-09-30T10:39:27.758Z,21.93
2018-09-30T10:40:27.731Z,22.04
2018-09-30T10:41:27.730Z,22.49
2018-09-30T10:42:27.720Z,22.52
2018-09-30T10:43:27.704Z,22.19
2018-09-30T10:44:27.703Z,22.20
2018-09-30T10:45:27.675Z,22.08
2018-09-30T10:46:27.670Z,22.72
2018-09-30T10:47:27.653Z,23.19
2018-09-30T10:48:27.799Z,23.82
2018-09-30T10:49:27.649Z,24.15
2018-09-30T10:50:27.622Z,24.34
2018-09-30T10:51:27.616Z,24.19
2018-09-30T10:52:27.608Z,24.24
2018-09-30T10:53:27.602Z,24.55
2018-09-30T10:54:27.599Z,24.90
2018-09-30T10:55:27.603Z,24.87
2018-09-30T10:56:27.573Z,24.82
2018-09-30T10:57:27.567Z,24.37
2018-09-30T10:58:27.552Z,24.53
2018-09-30T10:59:27.544Z,24.68
2018-09-30T11:00:27.525Z,25.20
2018-09-30T11:01:27.510Z,25.42
2018-09-30T11:02:27.495Z,25.30
2018-09-30T11:03:27.523Z,25.04
2018-09-30T11:04:27.496Z,24.82
2018-09-30T11:05:27.470Z,24.68
2018-09-30T11:06:27.462Z,24.33
2018-09-30T11:07:27.444Z,24.33
2018-09-30T11:08:27.445Z,24.36
2018-09-30T11:09:27.454Z,24.31
2018-09-30T11:10:27.420Z,24.31
2018-09-30T11:11:30.227Z,24.55
2018-09-30T11:12:27.406Z,24.49
2018-09-30T11:13:27.387Z,24.49
2018-09-30T11:14:27.398Z,24.70
2018-09-30T11:15:27.373Z,24.68
2018-09-30T11:16:27.370Z,24.67
2018-09-30T11:17:27.349Z,24.66
2018-09-30T11:18:27.334Z,24.92
2018-09-30T11:19:27.342Z,24.94
2018-09-30T11:20:27.308Z,24.94
2018-09-30T11:21:27.302Z,25.04
2018-09-30T11:22:27.356Z,24.71
2018-09-30T11:23:27.288Z,24.51
2018-09-30T11:24:27.299Z,23.72
2018-09-30T11:25:27.271Z,23.50
2018-09-30T11:26:27.249Z,23.42
2018-09-30T11:27:27.238Z,23.69
2018-09-30T11:28:27.239Z,23.96
2018-09-30T11:29:27.241Z,24.14
2018-09-30T11:30:27.216Z,24.33
2018-09-30T11:31:27.197Z,24.19
2018-09-30T11:32:27.188Z,24.12
2018-09-30T11:33:27.173Z,24.02
2018-09-30T11:34:27.166Z,23.82
2018-09-30T11:35:27.176Z,23.68
2018-09-30T11:36:27.143Z,23.57
2018-09-30T11:37:27.135Z,23.45
2018-09-30T11:38:27.129Z,23.39
2018-09-30T11:39:27.136Z,23.22
2018-09-30T11:40:27.114Z,22.99
2018-09-30T11:41:27.103Z,22.72
2018-09-30T11:42:27.087Z,22.49
2018-09-30T11:43:27.077Z,22.41
2018-09-30T11:44:27.079Z,22.41
2018-09-30T11:45:27.077Z,21.94
2018-09-30T11:46:27.046Z,21.61
2018-09-30T11:47:27.038Z,21.51
2018-09-30T11:48:27.035Z,21.45
2018-09-30T11:49:27.022Z,21.49
2018-09-30T11:50:27.025Z,21.64
2018-09-30T11:51:27.005Z,22.08
2018-09-30T11:52:26.999Z,22.27
2018-09-30T11:53:26.986Z,22.49
2018-09-30T11:54:26.967Z,22.76
2018-09-30T11:55:26.966Z,22.79
2018-09-30T11:56:26.957Z,22.86
2018-09-30T11:57:26.939Z,23.04
2018-09-30T11:58:26.941Z,23.00
2018-09-30T11:59:26.926Z,23.15
2018-09-30T12:00:26.911Z,23.19
2018-09-30T12:01:27.827Z,23.21
2018-09-30T12:02:26.946Z,23.06
2018-09-30T12:03:27.452Z,22.97
2018-09-30T12:04:26.859Z,22.74
2018-09-30T12:05:26.857Z,22.67
2018-09-30T12:06:26.836Z,22.59
2018-09-30T12:07:26.832Z,22.63
2018-09-30T12:08:26.809Z,22.20
2018-09-30T12:09:26.808Z,22.11
2018-09-30T12:10:26.799Z,22.15
2018-09-30T12:11:26.808Z,22.27
2018-09-30T12:12:26.765Z,22.42
2018-09-30T12:13:26.771Z,22.42
2018-09-30T12:14:26.750Z,22.51
2018-09-30T12:15:26.754Z,22.42
2018-09-30T12:16:26.719Z,22.49
2018-09-30T12:17:26.727Z,22.51
2018-09-30T12:18:26.707Z,22.38
2018-09-30T12:19:26.745Z,22.31
2018-09-30T12:20:26.706Z,21.81
2018-09-30T12:21:26.692Z,21.52
2018-09-30T12:22:26.660Z,21.49
2018-09-30T12:23:26.645Z,21.81
2018-09-30T12:24:26.652Z,21.99
2018-09-30T12:25:26.663Z,22.14
2018-09-30T12:26:26.630Z,22.01
2018-09-30T12:27:26.642Z,22.12
2018-09-30T12:28:26.632Z,21.98
2018-09-30T12:29:26.639Z,21.99
2018-09-30T12:30:26.591Z,22.01
2018-09-30T12:31:26.604Z,21.94
2018-09-30T12:32:26.552Z,21.67
2018-09-30T12:33:26.549Z,21.58
2018-09-30T12:34:26.534Z,21.48
2018-09-30T12:35:26.534Z,21.38
2018-09-30T12:36:26.521Z,21.40
2018-09-30T12:37:26.516Z,21.18
2018-09-30T12:38:26.503Z,21.22
2018-09-30T12:39:26.617Z,21.31
2018-09-30T12:40:26.506Z,21.45
2018-09-30T12:41:26.497Z,21.73
2018-09-30T12:42:26.448Z,21.91
2018-09-30T12:43:26.441Z,22.04
2018-09-30T12:44:26.473Z,22.05
2018-09-30T12:45:26.425Z,22.08
2018-09-30T12:46:26.412Z,22.02
2018-09-30T12:47:26.415Z,21.94
2018-09-30T12:48:26.386Z,21.77
2018-09-30T12:49:26.390Z,21.83
2018-09-30T12:50:26.394Z,21.94
2018-09-30T12:51:26.386Z,22.05
2018-09-30T12:52:26.350Z,22.23
2018-09-30T12:53:26.322Z,22.35
2018-09-30T12:54:26.312Z,22.39
2018-09-30T12:55:26.302Z,22.42
2018-09-30T12:56:26.319Z,22.45
2018-09-30T12:57:26.279Z,22.36
2018-09-30T12:58:26.270Z,22.31
2018-09-30T12:59:26.258Z,22.30
2018-09-30T13:00:26.248Z,22.42
2018-09-30T13:01:26.251Z,22.48
2018-09-30T13:02:26.240Z,22.52
2018-09-30T13:03:26.215Z,22.44
2018-09-30T13:04:26.209Z,22.38
2018-09-30T13:05:26.195Z,22.30